Fall Rock, KY (40932)

11:32 PM EDT on July 24, 2016 (GMT -0400)
London-Corbin / McKee | | Change Station

Elev 1211 ft 37.09 °N, 84.08 °W | Updated 39 minutes ago

Clear
Clear
80 °F
Feels Like 84 °F
N
0
Wind Variable Wind from North

Today
High -- | Low -- °F
--% Chance of Precip.
Yesterday
High -- | Low -- °F
Precip. -- in
Pressure 30.01 in
Visibility 10.0 miles
Clouds Clear
Heat Index 84 °F
Dew Point 73 °F
Humidity 79%
Rainfall 0.00 in
Snow Depth Not available.
6:33 AM 8:49 PM
Waning Gibbous, 70% visible
METAR KLOZ 250253Z AUTO 00000KT 10SM CLR 27/23 A3006 RMK AO2 SLP162 T02670228 51010
Pressure 30.01 in
Visibility 10.0 miles
Clouds Clear
Heat Index 84 °F
Dew Point 73 °F
Humidity 79%
Rainfall 0.00 in
Snow Depth Not available.
6:33 AM 8:49 PM
Waning Gibbous, 70% visible
METAR KLOZ 250253Z AUTO 00000KT 10SM CLR 27/23 A3006 RMK AO2 SLP162 T02670228 51010

10-Day Weather Forecast

Almanac

Astronomy

Jul. 24, 2016 Rise Set
Actual Time
Civil Twilight
Nautical Twilight
Astronomical Twilight
Moon
Length of Visible Light
Length of Day
Tomorrow will be .
, % of the Moon is Illuminated

Today's Extremes

State Highs State Lows

Community

WunderPhotos

Upload Photos

1,927,256 photos uploaded!

WunderBlog® & News

Nearby

Air Quality

  Air Quality AQ Index Pollutant
Not available.

Snow Depth

Station Depth Elevation

Earthquake Activity

City Distance Mag. Time & Date
Minimum magnitude displayed is 2.5.

Coastal Water Temperatures

Place Temperature

Stations

Nearby Weather Stations

Station Location Temp. Windchill Dew Point Humidity Wind Precip. Elev Updated Type
                   

Watches & Warnings

There are currently no watches in effect.